KCGZ/CGZ METAR and TAF weather

Enter ICAO airport designator
Station Type Date Time Source
KCGZ METAR 2019/10/15 07:56 UTC NOAA

KCGZ 150756Z AUTO 00000KT 10SM CLR 22/10 A2993 RMK AO2 SLP121 T02170100


Station Type Date Time Source
KCGZ Decoded METAR 2019/10/15 07:56 UTC NOAA

Casa Grande, Casa Grande Municipal Airport, AZ, United States (KCGZ) 32-57N 111-46W
Oct 15, 2019 - 03:56 AM EDT / 2019.10.15 0756 UTC
Wind: Calm:0
Visibility: 10 mile(s):0
Sky conditions: clear
Temperature: 71.1 F (21.7 C)
Dew Point: 50.0 F (10.0 C)
Relative Humidity: 47%
Pressure (altimeter): 29.93 in. Hg (1013 hPa)
ob: KCGZ 150756Z AUTO 00000KT 10SM CLR 22/10 A2993 RMK AO2 SLP121 T02170100
cycle: 8

Station Type Date Time Source
KCGZ TAF UTC NOAA

Error!

Example: see airport list